sensor_id;sensor_type;location;lat;lon;timestamp;P1;durP1;ratioP1;P2;durP2;ratioP2
3050;SDS011;1535;51.098;6.414;2022-09-09T00:01:42;13.57;;;12.43;;
3050;SDS011;1535;51.098;6.414;2022-09-09T00:04:18;14.53;;;13.10;;
3050;SDS011;1535;51.098;6.414;2022-09-09T00:06:57;15.20;;;13.67;;
3050;SDS011;1535;51.098;6.414;2022-09-09T00:09:30;15.27;;;13.60;;
3050;SDS011;1535;51.098;6.414;2022-09-09T00:12:05;16.20;;;13.67;;
3050;SDS011;1535;51.098;6.414;2022-09-09T00:14:37;20.67;;;12.97;;
3050;SDS011;1535;51.098;6.414;2022-09-09T00:17:12;17.73;;;13.20;;
3050;SDS011;1535;51.098;6.414;2022-09-09T00:19:51;13.67;;;12.63;;
3050;SDS011;1535;51.098;6.414;2022-09-09T00:22:25;15.43;;;13.53;;
3050;SDS011;1535;51.098;6.414;2022-09-09T00:24:57;14.60;;;13.17;;
3050;SDS011;1535;51.098;6.414;2022-09-09T00:27:36;17.60;;;13.00;;
3050;SDS011;1535;51.098;6.414;2022-09-09T00:30:12;15.27;;;12.90;;
3050;SDS011;1535;51.098;6.414;2022-09-09T00:32:44;20.07;;;13.37;;
3050;SDS011;1535;51.098;6.414;2022-09-09T00:35:14;15.57;;;13.90;;
3050;SDS011;1535;51.098;6.414;2022-09-09T00:37:46;21.60;;;14.67;;
3050;SDS011;1535;51.098;6.414;2022-09-09T00:40:18;20.43;;;14.47;;
3050;SDS011;1535;51.098;6.414;2022-09-09T00:42:52;16.23;;;13.57;;
3050;SDS011;1535;51.098;6.414;2022-09-09T00:45:37;14.00;;;12.67;;
3050;SDS011;1535;51.098;6.414;2022-09-09T00:48:18;20.53;;;13.80;;
3050;SDS011;1535;51.098;6.414;2022-09-09T00:50:49;16.50;;;14.43;;
3050;SDS011;1535;51.098;6.414;2022-09-09T00:53:27;14.97;;;13.50;;
3050;SDS011;1535;51.098;6.414;2022-09-09T00:56:05;16.63;;;14.30;;
3050;SDS011;1535;51.098;6.414;2022-09-09T00:58:38;14.70;;;13.40;;
3050;SDS011;1535;51.098;6.414;2022-09-09T01:01:07;14.13;;;12.60;;
3050;SDS011;1535;51.098;6.414;2022-09-09T01:03:37;15.50;;;13.20;;
3050;SDS011;1535;51.098;6.414;2022-09-09T01:06:14;17.07;;;12.43;;
3050;SDS011;1535;51.098;6.414;2022-09-09T01:08:48;14.83;;;13.40;;
3050;SDS011;1535;51.098;6.414;2022-09-09T01:11:32;15.13;;;13.70;;
3050;SDS011;1535;51.098;6.414;2022-09-09T01:14:11;14.83;;;13.77;;
3050;SDS011;1535;51.098;6.414;2022-09-09T01:16:46;14.73;;;13.50;;
3050;SDS011;1535;51.098;6.414;2022-09-09T01:19:15;14.33;;;13.43;;
3050;SDS011;1535;51.098;6.414;2022-09-09T01:21:52;14.40;;;13.60;;
3050;SDS011;1535;51.098;6.414;2022-09-09T01:24:30;13.93;;;12.80;;
3050;SDS011;1535;51.098;6.414;2022-09-09T01:27:05;14.33;;;13.10;;
3050;SDS011;1535;51.098;6.414;2022-09-09T01:29:33;14.83;;;13.37;;
3050;SDS011;1535;51.098;6.414;2022-09-09T01:32:35;14.83;;;13.60;;
3050;SDS011;1535;51.098;6.414;2022-09-09T01:35:05;15.20;;;14.10;;
3050;SDS011;1535;51.098;6.414;2022-09-09T01:37:36;15.30;;;14.13;;
3050;SDS011;1535;51.098;6.414;2022-09-09T01:40:04;15.20;;;13.87;;
3050;SDS011;1535;51.098;6.414;2022-09-09T01:42:33;14.60;;;13.77;;
3050;SDS011;1535;51.098;6.414;2022-09-09T01:45:00;15.17;;;13.87;;
3050;SDS011;1535;51.098;6.414;2022-09-09T01:47:27;14.47;;;13.40;;
3050;SDS011;1535;51.098;6.414;2022-09-09T01:49:55;13.70;;;12.90;;
3050;SDS011;1535;51.098;6.414;2022-09-09T01:52:22;21.00;;;13.47;;
3050;SDS011;1535;51.098;6.414;2022-09-09T01:54:49;13.70;;;12.80;;
3050;SDS011;1535;51.098;6.414;2022-09-09T01:57:18;13.83;;;13.03;;
3050;SDS011;1535;51.098;6.414;2022-09-09T01:59:53;14.00;;;13.10;;
3050;SDS011;1535;51.098;6.414;2022-09-09T02:02:32;12.93;;;12.13;;
3050;SDS011;1535;51.098;6.414;2022-09-09T02:05:05;14.00;;;12.83;;
3050;SDS011;1535;51.098;6.414;2022-09-09T02:07:41;14.07;;;13.17;;
3050;SDS011;1535;51.098;6.414;2022-09-09T02:10:10;13.07;;;12.03;;
3050;SDS011;1535;51.098;6.414;2022-09-09T02:12:43;13.83;;;12.67;;
3050;SDS011;1535;51.098;6.414;2022-09-09T02:15:15;19.53;;;12.30;;
3050;SDS011;1535;51.098;6.414;2022-09-09T02:17:45;13.20;;;12.40;;
3050;SDS011;1535;51.098;6.414;2022-09-09T02:20:15;14.77;;;13.37;;
3050;SDS011;1535;51.098;6.414;2022-09-09T02:22:45;13.07;;;11.90;;
3050;SDS011;1535;51.098;6.414;2022-09-09T02:25:17;12.90;;;11.80;;
3050;SDS011;1535;51.098;6.414;2022-09-09T02:27:47;14.00;;;12.33;;
3050;SDS011;1535;51.098;6.414;2022-09-09T02:30:19;13.60;;;12.33;;
3050;SDS011;1535;51.098;6.414;2022-09-09T02:32:48;16.43;;;12.00;;
3050;SDS011;1535;51.098;6.414;2022-09-09T02:35:17;13.03;;;11.93;;
3050;SDS011;1535;51.098;6.414;2022-09-09T02:37:47;11.80;;;11.20;;
3050;SDS011;1535;51.098;6.414;2022-09-09T02:40:16;12.47;;;11.33;;
3050;SDS011;1535;51.098;6.414;2022-09-09T02:42:44;11.90;;;11.17;;
3050;SDS011;1535;51.098;6.414;2022-09-09T02:45:14;12.90;;;12.00;;
3050;SDS011;1535;51.098;6.414;2022-09-09T02:47:47;14.83;;;13.33;;
3050;SDS011;1535;51.098;6.414;2022-09-09T02:50:19;13.70;;;12.80;;
3050;SDS011;1535;51.098;6.414;2022-09-09T02:52:54;13.97;;;12.60;;
3050;SDS011;1535;51.098;6.414;2022-09-09T02:55:30;13.90;;;13.00;;
3050;SDS011;1535;51.098;6.414;2022-09-09T02:58:05;13.60;;;12.63;;
3050;SDS011;1535;51.098;6.414;2022-09-09T03:00:37;14.03;;;12.70;;
3050;SDS011;1535;51.098;6.414;2022-09-09T03:03:05;13.73;;;12.63;;
3050;SDS011;1535;51.098;6.414;2022-09-09T03:05:33;20.33;;;12.40;;
3050;SDS011;1535;51.098;6.414;2022-09-09T03:08:00;13.80;;;12.60;;
3050;SDS011;1535;51.098;6.414;2022-09-09T03:10:29;14.50;;;13.30;;
3050;SDS011;1535;51.098;6.414;2022-09-09T03:12:56;14.00;;;12.90;;
3050;SDS011;1535;51.098;6.414;2022-09-09T03:15:24;13.37;;;12.20;;
3050;SDS011;1535;51.098;6.414;2022-09-09T03:17:55;15.10;;;13.87;;
3050;SDS011;1535;51.098;6.414;2022-09-09T03:20:22;14.77;;;13.20;;
3050;SDS011;1535;51.098;6.414;2022-09-09T03:22:50;13.03;;;12.00;;
3050;SDS011;1535;51.098;6.414;2022-09-09T03:25:18;14.00;;;12.80;;
3050;SDS011;1535;51.098;6.414;2022-09-09T03:27:48;14.10;;;12.83;;
3050;SDS011;1535;51.098;6.414;2022-09-09T03:30:18;14.67;;;13.30;;
3050;SDS011;1535;51.098;6.414;2022-09-09T03:32:44;13.53;;;12.00;;
3050;SDS011;1535;51.098;6.414;2022-09-09T03:35:14;13.67;;;12.40;;
3050;SDS011;1535;51.098;6.414;2022-09-09T03:37:42;12.97;;;11.83;;
3050;SDS011;1535;51.098;6.414;2022-09-09T03:40:09;13.90;;;12.67;;
3050;SDS011;1535;51.098;6.414;2022-09-09T03:42:38;15.00;;;12.00;;
3050;SDS011;1535;51.098;6.414;2022-09-09T03:45:05;12.10;;;10.43;;
3050;SDS011;1535;51.098;6.414;2022-09-09T03:47:34;10.53;;;9.77;;
3050;SDS011;1535;51.098;6.414;2022-09-09T03:50:02;14.63;;;10.73;;
3050;SDS011;1535;51.098;6.414;2022-09-09T03:52:32;12.40;;;9.70;;
3050;SDS011;1535;51.098;6.414;2022-09-09T03:55:02;10.67;;;9.63;;
3050;SDS011;1535;51.098;6.414;2022-09-09T03:57:29;16.73;;;10.33;;
3050;SDS011;1535;51.098;6.414;2022-09-09T03:59:56;11.43;;;10.33;;
3050;SDS011;1535;51.098;6.414;2022-09-09T04:02:26;10.50;;;9.40;;
3050;SDS011;1535;51.098;6.414;2022-09-09T04:04:53;10.13;;;9.10;;
3050;SDS011;1535;51.098;6.414;2022-09-09T04:07:20;10.27;;;9.33;;
3050;SDS011;1535;51.098;6.414;2022-09-09T04:09:49;11.27;;;9.00;;
3050;SDS011;1535;51.098;6.414;2022-09-09T04:12:16;10.27;;;9.23;;
3050;SDS011;1535;51.098;6.414;2022-09-09T04:14:42;10.60;;;9.20;;
3050;SDS011;1535;51.098;6.414;2022-09-09T04:17:09;11.07;;;8.57;;
3050;SDS011;1535;51.098;6.414;2022-09-09T04:19:36;9.27;;;8.40;;
3050;SDS011;1535;51.098;6.414;2022-09-09T04:22:03;10.13;;;9.13;;
3050;SDS011;1535;51.098;6.414;2022-09-09T04:24:30;8.70;;;8.00;;
3050;SDS011;1535;51.098;6.414;2022-09-09T04:26:58;9.40;;;8.20;;
3050;SDS011;1535;51.098;6.414;2022-09-09T04:29:25;9.33;;;8.43;;
3050;SDS011;1535;51.098;6.414;2022-09-09T04:31:52;12.27;;;8.60;;
3050;SDS011;1535;51.098;6.414;2022-09-09T04:34:19;10.90;;;8.37;;
3050;SDS011;1535;51.098;6.414;2022-09-09T04:36:46;16.83;;;7.67;;
3050;SDS011;1535;51.098;6.414;2022-09-09T04:39:13;8.30;;;7.50;;
3050;SDS011;1535;51.098;6.414;2022-09-09T04:41:40;8.70;;;7.00;;
3050;SDS011;1535;51.098;6.414;2022-09-09T04:44:08;10.33;;;8.00;;
3050;SDS011;1535;51.098;6.414;2022-09-09T04:46:35;8.27;;;7.67;;
3050;SDS011;1535;51.098;6.414;2022-09-09T04:49:01;9.10;;;8.10;;
3050;SDS011;1535;51.098;6.414;2022-09-09T04:51:29;7.53;;;7.00;;
3050;SDS011;1535;51.098;6.414;2022-09-09T04:53:56;8.40;;;7.50;;
3050;SDS011;1535;51.098;6.414;2022-09-09T04:56:23;11.47;;;8.00;;
3050;SDS011;1535;51.098;6.414;2022-09-09T04:58:52;9.13;;;7.10;;
3050;SDS011;1535;51.098;6.414;2022-09-09T05:01:21;18.90;;;7.90;;
3050;SDS011;1535;51.098;6.414;2022-09-09T05:03:49;10.40;;;8.13;;
3050;SDS011;1535;51.098;6.414;2022-09-09T05:06:18;11.20;;;7.40;;
3050;SDS011;1535;51.098;6.414;2022-09-09T05:08:46;10.00;;;6.97;;
3050;SDS011;1535;51.098;6.414;2022-09-09T05:11:15;18.33;;;6.50;;
3050;SDS011;1535;51.098;6.414;2022-09-09T05:13:43;12.60;;;7.03;;
3050;SDS011;1535;51.098;6.414;2022-09-09T05:16:10;11.13;;;6.87;;
3050;SDS011;1535;51.098;6.414;2022-09-09T05:18:39;14.20;;;6.40;;
3050;SDS011;1535;51.098;6.414;2022-09-09T05:21:07;9.63;;;6.33;;
3050;SDS011;1535;51.098;6.414;2022-09-09T05:23:34;10.47;;;6.30;;
3050;SDS011;1535;51.098;6.414;2022-09-09T05:26:02;10.43;;;6.83;;
3050;SDS011;1535;51.098;6.414;2022-09-09T05:28:29;7.33;;;6.70;;
3050;SDS011;1535;51.098;6.414;2022-09-09T05:30:57;12.50;;;7.70;;
3050;SDS011;1535;51.098;6.414;2022-09-09T05:33:25;13.50;;;7.00;;
3050;SDS011;1535;51.098;6.414;2022-09-09T05:35:58;8.37;;;6.80;;
3050;SDS011;1535;51.098;6.414;2022-09-09T05:38:26;10.37;;;6.60;;
3050;SDS011;1535;51.098;6.414;2022-09-09T05:40:54;8.50;;;7.80;;
3050;SDS011;1535;51.098;6.414;2022-09-09T05:43:22;9.67;;;6.33;;
3050;SDS011;1535;51.098;6.414;2022-09-09T05:45:58;8.67;;;6.50;;
3050;SDS011;1535;51.098;6.414;2022-09-09T05:48:27;9.23;;;7.77;;
3050;SDS011;1535;51.098;6.414;2022-09-09T05:50:56;6.93;;;6.40;;
3050;SDS011;1535;51.098;6.414;2022-09-09T05:53:24;7.77;;;6.30;;
3050;SDS011;1535;51.098;6.414;2022-09-09T05:55:57;8.73;;;6.30;;
3050;SDS011;1535;51.098;6.414;2022-09-09T05:58:26;8.00;;;6.50;;
3050;SDS011;1535;51.098;6.414;2022-09-09T06:00:59;7.50;;;6.23;;
3050;SDS011;1535;51.098;6.414;2022-09-09T06:03:27;7.10;;;6.40;;
3050;SDS011;1535;51.098;6.414;2022-09-09T06:05:58;8.40;;;6.17;;
3050;SDS011;1535;51.098;6.414;2022-09-09T06:08:25;7.63;;;6.30;;
3050;SDS011;1535;51.098;6.414;2022-09-09T06:10:52;10.50;;;8.10;;
3050;SDS011;1535;51.098;6.414;2022-09-09T06:13:19;8.50;;;7.20;;
3050;SDS011;1535;51.098;6.414;2022-09-09T06:15:49;8.77;;;7.13;;
3050;SDS011;1535;51.098;6.414;2022-09-09T06:18:17;7.70;;;7.07;;
3050;SDS011;1535;51.098;6.414;2022-09-09T06:20:52;8.07;;;7.33;;
3050;SDS011;1535;51.098;6.414;2022-09-09T06:23:21;7.70;;;6.97;;
3050;SDS011;1535;51.098;6.414;2022-09-09T06:25:48;12.10;;;8.30;;
3050;SDS011;1535;51.098;6.414;2022-09-09T06:28:16;9.30;;;8.53;;
3050;SDS011;1535;51.098;6.414;2022-09-09T06:30:43;8.80;;;7.93;;
3050;SDS011;1535;51.098;6.414;2022-09-09T06:33:10;9.70;;;8.80;;
3050;SDS011;1535;51.098;6.414;2022-09-09T06:35:37;9.27;;;7.83;;
3050;SDS011;1535;51.098;6.414;2022-09-09T06:38:04;8.90;;;8.10;;
3050;SDS011;1535;51.098;6.414;2022-09-09T06:40:35;9.40;;;8.50;;
3050;SDS011;1535;51.098;6.414;2022-09-09T06:43:01;12.67;;;9.00;;
3050;SDS011;1535;51.098;6.414;2022-09-09T06:45:29;8.87;;;8.47;;
3050;SDS011;1535;51.098;6.414;2022-09-09T06:47:56;13.50;;;9.30;;
3050;SDS011;1535;51.098;6.414;2022-09-09T06:50:23;11.80;;;9.97;;
3050;SDS011;1535;51.098;6.414;2022-09-09T06:52:50;9.73;;;9.03;;
3050;SDS011;1535;51.098;6.414;2022-09-09T06:55:17;12.40;;;9.70;;
3050;SDS011;1535;51.098;6.414;2022-09-09T06:57:45;12.50;;;10.57;;
3050;SDS011;1535;51.098;6.414;2022-09-09T07:00:13;10.10;;;9.20;;
3050;SDS011;1535;51.098;6.414;2022-09-09T07:02:40;11.13;;;10.13;;
3050;SDS011;1535;51.098;6.414;2022-09-09T07:05:07;10.93;;;10.13;;
3050;SDS011;1535;51.098;6.414;2022-09-09T07:07:35;11.07;;;9.93;;
3050;SDS011;1535;51.098;6.414;2022-09-09T07:10:02;10.63;;;9.73;;
3050;SDS011;1535;51.098;6.414;2022-09-09T07:12:30;14.47;;;10.33;;
3050;SDS011;1535;51.098;6.414;2022-09-09T07:14:59;11.83;;;10.70;;
3050;SDS011;1535;51.098;6.414;2022-09-09T07:17:26;11.30;;;10.40;;
3050;SDS011;1535;51.098;6.414;2022-09-09T07:19:54;11.67;;;10.37;;
3050;SDS011;1535;51.098;6.414;2022-09-09T07:22:21;16.00;;;10.60;;
3050;SDS011;1535;51.098;6.414;2022-09-09T07:24:48;11.37;;;10.60;;
3050;SDS011;1535;51.098;6.414;2022-09-09T07:27:15;11.43;;;10.40;;
3050;SDS011;1535;51.098;6.414;2022-09-09T07:29:42;11.80;;;10.90;;
3050;SDS011;1535;51.098;6.414;2022-09-09T07:32:11;11.57;;;10.87;;
3050;SDS011;1535;51.098;6.414;2022-09-09T07:34:38;15.73;;;11.73;;
3050;SDS011;1535;51.098;6.414;2022-09-09T07:37:05;12.87;;;11.97;;
3050;SDS011;1535;51.098;6.414;2022-09-09T07:39:32;13.60;;;12.47;;
3050;SDS011;1535;51.098;6.414;2022-09-09T07:41:59;16.33;;;13.10;;
3050;SDS011;1535;51.098;6.414;2022-09-09T07:44:26;14.20;;;12.97;;
3050;SDS011;1535;51.098;6.414;2022-09-09T07:46:53;14.03;;;12.93;;
3050;SDS011;1535;51.098;6.414;2022-09-09T07:49:22;14.43;;;13.30;;
3050;SDS011;1535;51.098;6.414;2022-09-09T07:51:49;14.83;;;13.60;;
3050;SDS011;1535;51.098;6.414;2022-09-09T07:54:16;13.87;;;13.07;;
3050;SDS011;1535;51.098;6.414;2022-09-09T07:56:48;14.97;;;13.87;;
3050;SDS011;1535;51.098;6.414;2022-09-09T07:59:16;16.50;;;14.80;;
3050;SDS011;1535;51.098;6.414;2022-09-09T08:01:44;15.73;;;14.33;;
3050;SDS011;1535;51.098;6.414;2022-09-09T08:04:13;15.60;;;13.50;;
3050;SDS011;1535;51.098;6.414;2022-09-09T08:06:44;15.47;;;14.07;;
3050;SDS011;1535;51.098;6.414;2022-09-09T08:09:12;15.83;;;14.70;;
3050;SDS011;1535;51.098;6.414;2022-09-09T08:11:39;16.20;;;14.23;;
3050;SDS011;1535;51.098;6.414;2022-09-09T08:14:07;14.90;;;13.87;;
3050;SDS011;1535;51.098;6.414;2022-09-09T08:16:35;14.47;;;13.53;;
3050;SDS011;1535;51.098;6.414;2022-09-09T08:19:03;14.90;;;13.50;;
3050;SDS011;1535;51.098;6.414;2022-09-09T08:21:32;14.73;;;13.73;;
3050;SDS011;1535;51.098;6.414;2022-09-09T08:24:03;15.07;;;13.87;;
3050;SDS011;1535;51.098;6.414;2022-09-09T08:26:33;15.87;;;14.90;;
3050;SDS011;1535;51.098;6.414;2022-09-09T08:29:03;15.20;;;14.10;;
3050;SDS011;1535;51.098;6.414;2022-09-09T08:31:32;15.90;;;14.70;;
3050;SDS011;1535;51.098;6.414;2022-09-09T08:34:04;14.83;;;13.90;;
3050;SDS011;1535;51.098;6.414;2022-09-09T08:36:32;15.20;;;13.97;;
3050;SDS011;1535;51.098;6.414;2022-09-09T08:39:04;15.57;;;14.10;;
3050;SDS011;1535;51.098;6.414;2022-09-09T08:41:46;19.80;;;14.00;;
3050;SDS011;1535;51.098;6.414;2022-09-09T08:44:37;14.80;;;13.60;;
3050;SDS011;1535;51.098;6.414;2022-09-09T08:47:17;15.13;;;14.03;;
3050;SDS011;1535;51.098;6.414;2022-09-09T08:49:55;15.40;;;14.20;;
3050;SDS011;1535;51.098;6.414;2022-09-09T08:52:28;14.90;;;13.73;;
3050;SDS011;1535;51.098;6.414;2022-09-09T08:55:02;14.37;;;13.47;;
3050;SDS011;1535;51.098;6.414;2022-09-09T08:57:38;16.03;;;14.43;;
3050;SDS011;1535;51.098;6.414;2022-09-09T09:00:07;15.10;;;14.07;;
3050;SDS011;1535;51.098;6.414;2022-09-09T09:02:38;14.90;;;13.87;;
3050;SDS011;1535;51.098;6.414;2022-09-09T09:05:16;15.03;;;14.03;;
3050;SDS011;1535;51.098;6.414;2022-09-09T09:07:53;15.10;;;14.10;;
3050;SDS011;1535;51.098;6.414;2022-09-09T09:10:32;16.43;;;15.20;;
3050;SDS011;1535;51.098;6.414;2022-09-09T09:13:08;15.67;;;14.47;;
3050;SDS011;1535;51.098;6.414;2022-09-09T09:15:41;15.30;;;14.40;;
3050;SDS011;1535;51.098;6.414;2022-09-09T09:18:10;15.57;;;14.67;;
3050;SDS011;1535;51.098;6.414;2022-09-09T09:20:41;15.33;;;14.40;;
3050;SDS011;1535;51.098;6.414;2022-09-09T09:23:17;15.77;;;14.67;;
3050;SDS011;1535;51.098;6.414;2022-09-09T09:25:49;16.13;;;14.93;;
3050;SDS011;1535;51.098;6.414;2022-09-09T09:28:18;16.27;;;15.07;;
3050;SDS011;1535;51.098;6.414;2022-09-09T09:30:49;16.80;;;15.23;;
3050;SDS011;1535;51.098;6.414;2022-09-09T09:33:23;16.00;;;14.93;;
3050;SDS011;1535;51.098;6.414;2022-09-09T09:35:53;15.37;;;14.37;;
3050;SDS011;1535;51.098;6.414;2022-09-09T09:38:21;17.00;;;15.40;;
3050;SDS011;1535;51.098;6.414;2022-09-09T09:40:51;16.57;;;15.67;;
3050;SDS011;1535;51.098;6.414;2022-09-09T09:43:24;15.80;;;15.00;;
3050;SDS011;1535;51.098;6.414;2022-09-09T09:45:53;16.40;;;15.20;;
3050;SDS011;1535;51.098;6.414;2022-09-09T09:48:20;16.63;;;15.50;;
3050;SDS011;1535;51.098;6.414;2022-09-09T09:50:48;16.70;;;15.70;;
3050;SDS011;1535;51.098;6.414;2022-09-09T09:53:19;16.57;;;15.37;;
3050;SDS011;1535;51.098;6.414;2022-09-09T09:55:52;17.07;;;15.77;;
3050;SDS011;1535;51.098;6.414;2022-09-09T09:58:21;16.40;;;15.30;;
3050;SDS011;1535;51.098;6.414;2022-09-09T10:00:49;16.03;;;15.13;;
3050;SDS011;1535;51.098;6.414;2022-09-09T10:03:20;16.87;;;15.60;;
3050;SDS011;1535;51.098;6.414;2022-09-09T10:05:49;16.33;;;15.27;;
3050;SDS011;1535;51.098;6.414;2022-09-09T10:08:16;15.87;;;14.97;;
3050;SDS011;1535;51.098;6.414;2022-09-09T10:10:57;16.37;;;15.40;;
3050;SDS011;1535;51.098;6.414;2022-09-09T10:13:33;16.00;;;15.00;;
3050;SDS011;1535;51.098;6.414;2022-09-09T10:16:15;15.93;;;15.00;;
3050;SDS011;1535;51.098;6.414;2022-09-09T10:18:58;16.40;;;15.30;;
3050;SDS011;1535;51.098;6.414;2022-09-09T10:21:36;16.10;;;15.20;;
3050;SDS011;1535;51.098;6.414;2022-09-09T10:27:20;16.50;;;15.23;;
3050;SDS011;1535;51.098;6.414;2022-09-09T10:29:58;15.47;;;14.47;;
3050;SDS011;1535;51.098;6.414;2022-09-09T10:32:36;15.50;;;14.70;;
3050;SDS011;1535;51.098;6.414;2022-09-09T10:35:10;15.50;;;14.80;;
3050;SDS011;1535;51.098;6.414;2022-09-09T10:40:39;16.10;;;15.13;;
3050;SDS011;1535;51.098;6.414;2022-09-09T10:43:16;15.80;;;14.90;;
3050;SDS011;1535;51.098;6.414;2022-09-09T10:45:54;16.50;;;15.20;;
3050;SDS011;1535;51.098;6.414;2022-09-09T10:48:30;16.50;;;15.30;;
3050;SDS011;1535;51.098;6.414;2022-09-09T10:51:08;15.90;;;14.90;;
3050;SDS011;1535;51.098;6.414;2022-09-09T10:53:48;16.87;;;15.83;;
3050;SDS011;1535;51.098;6.414;2022-09-09T10:56:22;16.80;;;15.53;;
3050;SDS011;1535;51.098;6.414;2022-09-09T10:58:52;16.07;;;15.17;;
3050;SDS011;1535;51.098;6.414;2022-09-09T11:01:24;15.77;;;14.90;;
3050;SDS011;1535;51.098;6.414;2022-09-09T11:03:55;15.50;;;14.50;;
3050;SDS011;1535;51.098;6.414;2022-09-09T11:06:28;15.80;;;14.60;;
3050;SDS011;1535;51.098;6.414;2022-09-09T11:09:00;16.20;;;14.90;;
3050;SDS011;1535;51.098;6.414;2022-09-09T11:11:32;15.97;;;14.87;;
3050;SDS011;1535;51.098;6.414;2022-09-09T11:14:05;15.70;;;14.43;;
3050;SDS011;1535;51.098;6.414;2022-09-09T11:16:49;15.37;;;14.43;;
3050;SDS011;1535;51.098;6.414;2022-09-09T11:19:21;15.50;;;14.60;;
3050;SDS011;1535;51.098;6.414;2022-09-09T11:21:54;15.17;;;14.47;;
3050;SDS011;1535;51.098;6.414;2022-09-09T11:24:23;15.77;;;14.83;;
3050;SDS011;1535;51.098;6.414;2022-09-09T11:26:55;16.07;;;15.07;;
3050;SDS011;1535;51.098;6.414;2022-09-09T11:29:33;15.40;;;14.60;;
3050;SDS011;1535;51.098;6.414;2022-09-09T11:32:27;15.57;;;14.70;;
3050;SDS011;1535;51.098;6.414;2022-09-09T11:35:09;14.67;;;13.80;;
3050;SDS011;1535;51.098;6.414;2022-09-09T11:37:55;15.17;;;14.37;;
3050;SDS011;1535;51.098;6.414;2022-09-09T11:40:35;15.73;;;14.83;;
3050;SDS011;1535;51.098;6.414;2022-09-09T11:43:02;14.93;;;14.03;;
3050;SDS011;1535;51.098;6.414;2022-09-09T11:45:31;16.37;;;15.30;;
3050;SDS011;1535;51.098;6.414;2022-09-09T11:48:02;16.27;;;15.27;;
3050;SDS011;1535;51.098;6.414;2022-09-09T11:50:32;15.57;;;14.70;;
3050;SDS011;1535;51.098;6.414;2022-09-09T11:55:47;16.07;;;15.23;;
3050;SDS011;1535;51.098;6.414;2022-09-09T11:58:25;15.83;;;14.93;;
3050;SDS011;1535;51.098;6.414;2022-09-09T12:00:54;15.47;;;14.70;;
3050;SDS011;1535;51.098;6.414;2022-09-09T12:03:33;15.33;;;14.10;;
3050;SDS011;1535;51.098;6.414;2022-09-09T12:06:14;15.80;;;14.90;;
3050;SDS011;1535;51.098;6.414;2022-09-09T12:08:46;16.57;;;15.47;;
3050;SDS011;1535;51.098;6.414;2022-09-09T12:11:24;15.30;;;14.60;;
3050;SDS011;1535;51.098;6.414;2022-09-09T12:13:53;15.83;;;14.93;;
3050;SDS011;1535;51.098;6.414;2022-09-09T12:16:28;16.67;;;15.10;;
3050;SDS011;1535;51.098;6.414;2022-09-09T12:21:46;15.73;;;14.73;;
3050;SDS011;1535;51.098;6.414;2022-09-09T12:24:21;19.10;;;17.60;;
3050;SDS011;1535;51.098;6.414;2022-09-09T12:26:54;20.63;;;18.93;;
3050;SDS011;1535;51.098;6.414;2022-09-09T12:29:28;20.30;;;18.50;;
3050;SDS011;1535;51.098;6.414;2022-09-09T12:32:04;18.10;;;16.73;;
3050;SDS011;1535;51.098;6.414;2022-09-09T12:34:38;17.23;;;15.87;;
3050;SDS011;1535;51.098;6.414;2022-09-09T12:37:08;16.50;;;15.20;;
3050;SDS011;1535;51.098;6.414;2022-09-09T12:39:44;14.30;;;13.37;;
3050;SDS011;1535;51.098;6.414;2022-09-09T12:42:16;12.80;;;11.90;;
3050;SDS011;1535;51.098;6.414;2022-09-09T12:44:51;10.73;;;9.97;;
3050;SDS011;1535;51.098;6.414;2022-09-09T12:47:18;9.10;;;8.20;;
3050;SDS011;1535;51.098;6.414;2022-09-09T12:49:49;9.33;;;8.40;;
3050;SDS011;1535;51.098;6.414;2022-09-09T12:52:19;8.20;;;7.50;;
3050;SDS011;1535;51.098;6.414;2022-09-09T12:54:49;9.60;;;9.10;;
3050;SDS011;1535;51.098;6.414;2022-09-09T12:57:16;9.90;;;9.20;;
3050;SDS011;1535;51.098;6.414;2022-09-09T12:59:44;11.80;;;11.00;;
3050;SDS011;1535;51.098;6.414;2022-09-09T13:02:16;12.67;;;11.47;;
3050;SDS011;1535;51.098;6.414;2022-09-09T13:04:45;12.73;;;11.93;;
3050;SDS011;1535;51.098;6.414;2022-09-09T13:07:14;14.23;;;13.33;;
3050;SDS011;1535;51.098;6.414;2022-09-09T13:09:41;15.03;;;14.13;;
3050;SDS011;1535;51.098;6.414;2022-09-09T13:12:11;15.07;;;14.27;;
3050;SDS011;1535;51.098;6.414;2022-09-09T13:14:42;18.03;;;16.40;;
3050;SDS011;1535;51.098;6.414;2022-09-09T13:17:15;15.60;;;14.60;;
3050;SDS011;1535;51.098;6.414;2022-09-09T13:19:46;17.07;;;15.63;;
3050;SDS011;1535;51.098;6.414;2022-09-09T13:22:20;15.60;;;14.60;;
3050;SDS011;1535;51.098;6.414;2022-09-09T13:24:58;15.50;;;14.70;;
3050;SDS011;1535;51.098;6.414;2022-09-09T13:27:28;13.23;;;12.53;;
3050;SDS011;1535;51.098;6.414;2022-09-09T13:29:58;13.80;;;12.90;;
3050;SDS011;1535;51.098;6.414;2022-09-09T13:32:26;13.80;;;13.20;;
3050;SDS011;1535;51.098;6.414;2022-09-09T13:34:53;14.93;;;13.50;;
3050;SDS011;1535;51.098;6.414;2022-09-09T13:37:26;15.10;;;14.20;;
3050;SDS011;1535;51.098;6.414;2022-09-09T13:39:58;15.43;;;14.23;;
3050;SDS011;1535;51.098;6.414;2022-09-09T13:42:26;17.00;;;15.53;;
3050;SDS011;1535;51.098;6.414;2022-09-09T13:44:54;15.60;;;14.70;;
3050;SDS011;1535;51.098;6.414;2022-09-09T13:47:26;15.87;;;15.03;;
3050;SDS011;1535;51.098;6.414;2022-09-09T13:49:56;16.30;;;15.20;;
3050;SDS011;1535;51.098;6.414;2022-09-09T13:52:24;16.50;;;15.47;;
3050;SDS011;1535;51.098;6.414;2022-09-09T13:54:55;16.77;;;15.77;;
3050;SDS011;1535;51.098;6.414;2022-09-09T13:57:23;16.57;;;15.63;;
3050;SDS011;1535;51.098;6.414;2022-09-09T13:59:51;16.20;;;15.20;;
3050;SDS011;1535;51.098;6.414;2022-09-09T14:02:19;15.40;;;14.40;;
3050;SDS011;1535;51.098;6.414;2022-09-09T14:04:48;14.80;;;14.10;;
3050;SDS011;1535;51.098;6.414;2022-09-09T14:07:16;15.00;;;14.10;;
3050;SDS011;1535;51.098;6.414;2022-09-09T14:09:45;14.73;;;13.90;;
3050;SDS011;1535;51.098;6.414;2022-09-09T14:12:15;14.60;;;13.70;;
3050;SDS011;1535;51.098;6.414;2022-09-09T14:14:42;14.13;;;13.53;;
3050;SDS011;1535;51.098;6.414;2022-09-09T14:17:10;14.93;;;14.03;;
3050;SDS011;1535;51.098;6.414;2022-09-09T14:19:36;29.60;;;23.87;;
3050;SDS011;1535;51.098;6.414;2022-09-09T14:22:03;22.73;;;20.73;;
3050;SDS011;1535;51.098;6.414;2022-09-09T14:24:30;43.23;;;20.23;;
3050;SDS011;1535;51.098;6.414;2022-09-09T14:26:59;19.20;;;17.77;;
3050;SDS011;1535;51.098;6.414;2022-09-09T14:29:26;16.50;;;15.60;;
3050;SDS011;1535;51.098;6.414;2022-09-09T14:31:53;15.40;;;14.60;;
3050;SDS011;1535;51.098;6.414;2022-09-09T14:34:19;13.73;;;12.93;;
3050;SDS011;1535;51.098;6.414;2022-09-09T14:36:47;11.90;;;11.20;;
3050;SDS011;1535;51.098;6.414;2022-09-09T14:39:14;11.47;;;10.77;;
3050;SDS011;1535;51.098;6.414;2022-09-09T14:41:41;9.87;;;9.30;;
3050;SDS011;1535;51.098;6.414;2022-09-09T14:44:09;8.73;;;8.03;;
3050;SDS011;1535;51.098;6.414;2022-09-09T14:46:36;7.30;;;7.00;;
3050;SDS011;1535;51.098;6.414;2022-09-09T14:49:03;7.03;;;6.73;;
3050;SDS011;1535;51.098;6.414;2022-09-09T14:51:30;7.50;;;7.10;;
3050;SDS011;1535;51.098;6.414;2022-09-09T14:53:57;8.43;;;6.33;;
3050;SDS011;1535;51.098;6.414;2022-09-09T14:56:25;7.47;;;6.10;;
3050;SDS011;1535;51.098;6.414;2022-09-09T14:58:55;6.13;;;5.70;;
3050;SDS011;1535;51.098;6.414;2022-09-09T15:01:27;4.93;;;4.73;;
3050;SDS011;1535;51.098;6.414;2022-09-09T15:03:55;5.20;;;4.90;;
3050;SDS011;1535;51.098;6.414;2022-09-09T15:06:24;5.20;;;4.83;;
3050;SDS011;1535;51.098;6.414;2022-09-09T15:08:53;5.30;;;5.10;;
3050;SDS011;1535;51.098;6.414;2022-09-09T15:11:23;6.00;;;5.70;;
3050;SDS011;1535;51.098;6.414;2022-09-09T15:13:50;6.40;;;6.00;;
3050;SDS011;1535;51.098;6.414;2022-09-09T15:16:18;14.20;;;13.00;;
3050;SDS011;1535;51.098;6.414;2022-09-09T15:18:50;14.67;;;13.87;;
3050;SDS011;1535;51.098;6.414;2022-09-09T15:21:19;16.20;;;15.13;;
3050;SDS011;1535;51.098;6.414;2022-09-09T15:23:48;15.30;;;14.60;;
3050;SDS011;1535;51.098;6.414;2022-09-09T15:26:16;19.10;;;17.37;;